Time;durP1;ratioP1;P1;durP2;ratioP2;P2;SDS_P1;SDS_P2;PMS_P1;PMS_P2;Temp;Humidity;BMP_temperature;BMP_pressure;BME280_temperature;BME280_humidity;BME280_pressure;Samples;Min_cycle;Max_cycle;Signal;HPM_P1;HPM_P2
2021/12/22 00:00:13;;;;;;;42.42;23.15;;;-0.30;99.90;;;;;;4901602;29;20044;-88
2021/12/22 00:02:46;;;;;;;43.65;25.00;;;-0.40;99.90;;;;;;4901630;29;20373;-88
2021/12/22 00:05:19;;;;;;;43.65;24.33;;;-0.30;99.90;;;;;;4901636;29;20052;-88
2021/12/22 00:07:45;;;;;;;42.80;23.58;;;-0.30;99.90;;;;;;4901175;29;20055;-88
2021/12/22 00:10:12;;;;;;;45.58;24.85;;;-0.30;99.90;;;;;;4901129;29;20076;-88
2021/12/22 00:12:38;;;;;;;44.35;24.25;;;-0.30;99.90;;;;;;4901133;29;20044;-88
2021/12/22 00:15:04;;;;;;;42.78;23.85;;;-0.30;99.90;;;;;;4918161;29;20040;-88
2021/12/22 00:17:30;;;;;;;41.20;25.10;;;-0.40;99.90;;;;;;4901034;29;20488;-88
2021/12/22 00:19:57;;;;;;;41.00;23.00;;;-0.30;99.90;;;;;;4901030;29;20152;-88
2021/12/22 00:22:22;;;;;;;45.83;23.42;;;-0.40;99.90;;;;;;4901081;29;20044;-88
2021/12/22 00:24:48;;;;;;;41.92;23.02;;;-0.40;99.90;;;;;;4901104;29;20044;-88
2021/12/22 00:27:14;;;;;;;39.28;21.70;;;-0.40;99.90;;;;;;4900706;29;20071;-90
2021/12/22 00:29:42;;;;;;;38.13;21.90;;;-0.40;99.90;;;;;;4900797;29;20052;-88
2021/12/22 00:32:13;;;;;;;41.25;21.38;;;-0.50;99.90;;;;;;4900894;29;20539;-87
2021/12/22 00:34:49;;;;;;;38.42;21.25;;;-0.50;99.90;;;;;;4917983;29;20056;-87
2021/12/22 00:37:18;;;;;;;35.90;22.13;;;-0.50;99.90;;;;;;4900905;29;20052;-87
2021/12/22 00:39:44;;;;;;;48.05;22.58;;;-0.40;99.90;;;;;;4900698;29;20051;-87
2021/12/22 00:42:11;;;;;;;38.88;24.17;;;-0.40;99.90;;;;;;4900546;29;20396;-87
2021/12/22 00:44:38;;;;;;;38.63;21.30;;;-0.40;99.90;;;;;;4901029;29;20480;-87
2021/12/22 00:47:04;;;;;;;39.53;22.25;;;-0.40;99.90;;;;;;4900785;29;20044;-87
2021/12/22 00:49:30;;;;;;;36.17;20.90;;;-0.40;99.90;;;;;;4900807;29;20048;-89
2021/12/22 00:51:55;;;;;;;34.60;21.83;;;-0.40;99.90;;;;;;4900644;29;20361;-90
2021/12/22 00:54:21;;;;;;;40.35;22.63;;;-0.40;99.90;;;;;;4900752;29;20496;-85
2021/12/22 00:56:47;;;;;;;38.30;21.98;;;-0.40;99.90;;;;;;4917686;29;20124;-84
2021/12/22 00:59:13;;;;;;;36.38;21.40;;;-0.40;99.90;;;;;;4900820;29;20055;-84
2021/12/22 01:01:39;;;;;;;38.17;21.48;;;-0.40;99.90;;;;;;4900791;29;20048;-85
2021/12/22 01:04:04;;;;;;;38.42;21.60;;;-0.40;99.90;;;;;;4900314;29;20047;-85
2021/12/22 01:06:30;;;;;;;40.22;21.02;;;-0.50;99.90;;;;;;4900583;29;20044;-84
2021/12/22 01:08:56;;;;;;;46.50;21.92;;;-0.50;99.90;;;;;;4900655;29;20437;-84
2021/12/22 01:11:21;;;;;;;35.05;19.50;;;-0.50;99.90;;;;;;4900654;29;20076;-84
2021/12/22 01:13:47;;;;;;;38.22;20.65;;;-0.50;99.90;;;;;;4900409;29;20425;-84
2021/12/22 01:16:13;;;;;;;36.65;19.67;;;-0.50;99.90;;;;;;4900428;29;20052;-85
2021/12/22 01:18:39;;;;;;;40.60;21.15;;;-0.50;99.90;;;;;;4900299;29;20048;-84
2021/12/22 01:23:51;;;;;;;34.63;19.77;;;-0.50;99.90;;;;;;4900512;29;20048;-85
2021/12/22 01:26:17;;;;;;;41.08;20.80;;;-0.60;99.90;;;;;;4900234;29;20131;-84
2021/12/22 01:28:43;;;;;;;33.72;19.15;;;-0.50;99.90;;;;;;4900220;29;20147;-85
2021/12/22 01:31:15;;;;;;;33.53;20.23;;;-0.50;99.90;;;;;;4904006;29;20136;-85
2021/12/22 01:33:41;;;;;;;39.10;19.13;;;-0.50;99.90;;;;;;4904033;29;20055;-85
2021/12/22 01:36:07;;;;;;;32.63;19.13;;;-0.50;99.90;;;;;;4903896;29;20288;-85
2021/12/22 01:38:33;;;;;;;33.70;18.70;;;-0.50;99.90;;;;;;4903986;29;20044;-85
2021/12/22 01:40:59;;;;;;;35.45;19.05;;;-0.50;99.90;;;;;;4921007;29;20052;-85
2021/12/22 01:43:24;;;;;;;33.28;20.70;;;-0.50;99.90;;;;;;4904155;29;20055;-85
2021/12/22 01:51:36;;;;;;;37.70;19.67;;;-0.50;99.90;;;;;;4903784;29;20052;-85
2021/12/22 01:54:27;;;;;;;34.95;18.73;;;-0.50;99.90;;;;;;4903770;29;20048;-85
2021/12/22 01:56:59;;;;;;;32.65;18.20;;;-0.50;99.90;;;;;;4903051;29;20143;-85
2021/12/22 01:59:25;;;;;;;30.90;17.50;;;-0.50;99.90;;;;;;4904320;29;20058;-85
2021/12/22 02:01:51;;;;;;;29.70;17.48;;;-0.60;99.90;;;;;;4903861;29;20135;-85
2021/12/22 02:04:17;;;;;;;32.58;17.05;;;-0.60;99.90;;;;;;4903670;29;20151;-85
2021/12/22 02:06:46;;;;;;;31.70;18.33;;;-0.60;99.90;;;;;;4903400;29;20543;-85
2021/12/22 02:09:17;;;;;;;31.77;18.13;;;-0.60;99.90;;;;;;4903236;29;20095;-85
2021/12/22 02:11:44;;;;;;;34.72;18.35;;;-0.60;99.90;;;;;;4903410;29;20052;-85
2021/12/22 02:14:10;;;;;;;33.50;19.48;;;-0.50;99.90;;;;;;4903578;29;20063;-85
2021/12/22 02:16:39;;;;;;;34.28;18.30;;;-0.60;99.90;;;;;;4920418;29;20404;-85
2021/12/22 02:19:07;;;;;;;28.13;15.70;;;-0.60;99.90;;;;;;4920264;29;20507;-85
2021/12/22 02:21:40;;;;;;;33.55;17.92;;;-0.60;99.90;;;;;;4903106;29;20044;-85
2021/12/22 02:24:06;;;;;;;30.90;17.67;;;-0.50;99.90;;;;;;4903113;29;20563;-85
2021/12/22 02:26:43;;;;;;;28.40;17.15;;;-0.60;99.90;;;;;;4903074;29;20048;-85
2021/12/22 02:29:20;;;;;;;30.88;17.27;;;-0.60;99.90;;;;;;4903182;29;20055;-85
2021/12/22 02:31:58;;;;;;;31.80;17.48;;;-0.60;99.90;;;;;;4903142;29;20415;-85
2021/12/22 02:34:24;;;;;;;28.95;17.73;;;-0.60;99.90;;;;;;4902986;29;20079;-85
2021/12/22 02:36:51;;;;;;;29.92;16.70;;;-0.60;99.90;;;;;;4919888;29;20088;-85
2021/12/22 02:39:17;;;;;;;31.60;18.25;;;-0.60;99.90;;;;;;4903206;29;20074;-85
2021/12/22 02:41:42;;;;;;;28.90;16.80;;;-0.60;99.90;;;;;;4902574;29;20400;-85
2021/12/22 02:44:10;;;;;;;34.05;17.80;;;-0.60;99.90;;;;;;4902909;29;20048;-85
2021/12/22 02:46:38;;;;;;;36.60;17.50;;;-0.60;99.90;;;;;;4902645;29;20059;-85
2021/12/22 02:49:07;;;;;;;28.73;17.83;;;-0.60;99.90;;;;;;4902908;29;20040;-85
2021/12/22 02:51:35;;;;;;;31.75;17.90;;;-0.70;99.90;;;;;;4902680;29;20400;-85
2021/12/22 02:56:37;;;;;;;28.92;18.02;;;-0.70;99.90;;;;;;4902613;29;20054;-85
2021/12/22 03:04:27;;;;;;;35.97;20.35;;;-0.70;99.90;;;;;;4902632;29;20134;-85
2021/12/22 03:09:22;;;;;;;32.25;18.38;;;-0.80;99.90;;;;;;4902740;29;20064;-85
2021/12/22 03:11:50;;;;;;;34.75;18.73;;;-0.80;99.90;;;;;;4902471;29;20052;-85
2021/12/22 03:14:16;;;;;;;35.40;19.23;;;-0.80;99.90;;;;;;4902601;29;20147;-85
2021/12/22 03:16:42;;;;;;;32.90;19.25;;;-0.80;99.90;;;;;;4902604;29;20060;-85
2021/12/22 03:19:10;;;;;;;33.90;19.63;;;-0.90;99.90;;;;;;4902543;29;20430;-85
2021/12/22 03:21:37;;;;;;;35.70;19.98;;;-0.80;99.90;;;;;;4902267;29;20131;-85
2021/12/22 03:24:03;;;;;;;31.77;18.85;;;-0.80;99.90;;;;;;4902271;29;20486;-85
2021/12/22 03:26:29;;;;;;;34.13;19.13;;;-0.90;99.90;;;;;;4902008;29;20047;-85
2021/12/22 03:28:55;;;;;;;36.80;20.00;;;-0.90;99.90;;;;;;4918966;29;20143;-85
2021/12/22 03:31:21;;;;;;;30.70;19.13;;;-0.90;99.90;;;;;;4901975;29;20496;-85
2021/12/22 03:33:47;;;;;;;33.95;18.63;;;-0.90;99.90;;;;;;4902280;29;20088;-85
2021/12/22 03:36:13;;;;;;;35.05;19.20;;;-0.90;99.90;;;;;;4902113;29;20488;-85
2021/12/22 03:38:39;;;;;;;36.55;20.70;;;-1.00;99.90;;;;;;4901995;29;20048;-85
2021/12/22 03:41:07;;;;;;;36.20;21.25;;;-1.00;99.90;;;;;;4901993;29;20048;-85
2021/12/22 03:43:33;;;;;;;34.47;19.45;;;-1.00;99.90;;;;;;4902160;29;20079;-85
2021/12/22 03:45:59;;;;;;;33.65;20.10;;;-1.00;99.90;;;;;;4901913;29;20099;-85
2021/12/22 03:48:25;;;;;;;33.35;18.92;;;-1.00;99.90;;;;;;4901753;29;20059;-85
2021/12/22 03:50:52;;;;;;;36.70;21.50;;;-1.00;99.90;;;;;;4901735;29;20056;-85
2021/12/22 03:53:18;;;;;;;34.92;19.20;;;-1.00;99.90;;;;;;4900492;29;20481;-86
2021/12/22 03:55:44;;;;;;;38.85;20.02;;;-1.00;99.90;;;;;;4901727;29;20176;-85
2021/12/22 03:58:10;;;;;;;35.63;20.63;;;-1.10;99.90;;;;;;4901451;29;20055;-86
2021/12/22 04:00:38;;;;;;;36.72;20.15;;;-1.10;99.90;;;;;;4901477;29;20100;-86
2021/12/22 04:03:04;;;;;;;42.05;21.88;;;-1.10;99.90;;;;;;4901749;29;20066;-86
2021/12/22 04:05:31;;;;;;;34.53;19.63;;;-1.10;99.90;;;;;;4901360;29;20123;-85
2021/12/22 04:07:57;;;;;;;35.92;21.48;;;-1.10;99.90;;;;;;4901713;29;20044;-85
2021/12/22 04:10:25;;;;;;;39.42;22.67;;;-1.20;99.90;;;;;;4901111;29;20107;-86
2021/12/22 04:12:54;;;;;;;38.25;21.38;;;-1.20;99.90;;;;;;4901249;29;20048;-85
2021/12/22 04:15:22;;;;;;;35.00;20.60;;;-1.20;99.90;;;;;;4901484;29;20104;-85
2021/12/22 04:17:48;;;;;;;36.97;21.15;;;-1.20;99.90;;;;;;4901190;29;20135;-85
2021/12/22 04:20:14;;;;;;;34.15;20.75;;;-1.30;99.90;;;;;;4918051;29;20127;-86
2021/12/22 04:22:40;;;;;;;37.83;20.85;;;-1.30;99.90;;;;;;4900904;29;20103;-86
2021/12/22 04:25:08;;;;;;;38.42;20.73;;;-1.30;99.90;;;;;;4900845;29;20052;-86
2021/12/22 04:27:35;;;;;;;31.60;19.77;;;-1.30;99.90;;;;;;4900676;29;20068;-86
2021/12/22 04:30:01;;;;;;;39.08;21.92;;;-1.40;99.90;;;;;;4901004;29;20056;-86
2021/12/22 04:32:27;;;;;;;35.17;20.40;;;-1.40;99.90;;;;;;4900965;29;20543;-85
2021/12/22 04:34:53;;;;;;;37.22;21.20;;;-1.40;99.90;;;;;;4900774;29;20140;-85
2021/12/22 04:37:18;;;;;;;36.10;20.73;;;-1.40;99.90;;;;;;4900798;29;20055;-85
2021/12/22 04:39:44;;;;;;;41.50;21.38;;;-1.40;99.90;;;;;;4900808;29;20080;-85
2021/12/22 04:42:10;;;;;;;36.92;20.98;;;-1.40;99.90;;;;;;4901044;29;20094;-85
2021/12/22 04:44:35;;;;;;;38.17;21.20;;;-1.40;99.90;;;;;;4901046;29;20103;-85
2021/12/22 04:47:01;;;;;;;39.45;21.02;;;-1.40;99.90;;;;;;4900614;29;20040;-86
2021/12/22 04:49:27;;;;;;;39.97;20.63;;;-1.40;99.90;;;;;;4917504;29;20059;-85
2021/12/22 04:51:55;;;;;;;38.40;20.67;;;-1.40;99.90;;;;;;4900563;29;20044;-85
2021/12/22 04:56:46;;;;;;;40.72;20.25;;;-1.50;99.90;;;;;;4900769;29;20060;-85
2021/12/22 04:59:12;;;;;;;35.40;21.88;;;-1.50;99.90;;;;;;4917629;29;20436;-85
2021/12/22 05:01:38;;;;;;;40.25;21.02;;;-1.50;99.90;;;;;;4900816;29;20047;-86
2021/12/22 05:04:04;;;;;;;39.70;20.40;;;-1.50;99.90;;;;;;4900317;29;20374;-85
2021/12/22 05:06:29;;;;;;;41.03;21.45;;;-1.40;99.90;;;;;;4900487;29;20053;-85
2021/12/22 05:08:55;;;;;;;44.45;22.60;;;-1.50;99.90;;;;;;4900703;29;20059;-85
2021/12/22 05:11:20;;;;;;;36.83;20.83;;;-1.50;99.90;;;;;;4900481;29;20499;-85
2021/12/22 05:13:46;;;;;;;47.65;21.92;;;-1.50;99.90;;;;;;4900688;29;20048;-85
2021/12/22 05:16:17;;;;;;;40.97;22.38;;;-1.50;99.90;;;;;;4900384;29;20498;-86
2021/12/22 05:21:18;;;;;;;35.58;20.48;;;-1.60;99.90;;;;;;4900586;29;20421;-86
2021/12/22 05:23:44;;;;;;;44.40;21.58;;;-1.50;99.90;;;;;;4900623;29;20091;-86
2021/12/22 05:26:09;;;;;;;41.10;20.52;;;-1.50;99.90;;;;;;4917256;29;20079;-85
2021/12/22 05:28:35;;;;;;;44.28;22.33;;;-1.50;99.90;;;;;;4916850;29;20063;-85
2021/12/22 05:31:01;;;;;;;42.22;21.67;;;-1.50;99.90;;;;;;4917102;29;20147;-86
2021/12/22 05:33:26;;;;;;;40.10;20.88;;;-1.50;99.90;;;;;;4900176;29;20052;-85
2021/12/22 05:35:52;;;;;;;42.40;21.55;;;-1.50;99.90;;;;;;4900358;29;20052;-85
2021/12/22 05:38:18;;;;;;;37.47;21.38;;;-1.50;99.90;;;;;;4900224;29;20528;-86
2021/12/22 05:40:43;;;;;;;38.50;22.73;;;-1.50;99.90;;;;;;4900408;29;20055;-85
2021/12/22 05:43:09;;;;;;;38.15;21.58;;;-1.50;99.90;;;;;;4900208;29;20040;-86
2021/12/22 05:45:35;;;;;;;39.08;21.20;;;-1.60;99.90;;;;;;4900448;29;20051;-86
2021/12/22 05:48:01;;;;;;;31.65;17.58;;;-1.60;99.90;;;;;;4899963;29;20048;-85
2021/12/22 05:50:27;;;;;;;41.80;20.95;;;-1.60;99.90;;;;;;4899984;29;20088;-85
2021/12/22 05:52:52;;;;;;;45.78;21.60;;;-1.60;99.90;;;;;;4900237;29;20056;-85
2021/12/22 05:55:18;;;;;;;37.13;20.13;;;-1.60;99.90;;;;;;4900137;29;20072;-85
2021/12/22 05:57:44;;;;;;;39.03;20.33;;;-1.60;99.90;;;;;;4900006;29;20048;-85
2021/12/22 06:00:11;;;;;;;45.55;23.50;;;-1.70;99.90;;;;;;4900121;29;20135;-85
2021/12/22 06:02:36;;;;;;;38.22;21.15;;;-1.70;99.90;;;;;;4900763;29;20520;-85
2021/12/22 06:05:02;;;;;;;37.85;19.60;;;-1.70;99.90;;;;;;4899965;29;20052;-86
2021/12/22 06:07:28;;;;;;;43.03;20.23;;;-1.70;99.90;;;;;;4900039;29;20052;-85
2021/12/22 06:09:53;;;;;;;33.78;19.77;;;-1.70;99.90;;;;;;4900027;29;20091;-86
2021/12/22 06:12:19;;;;;;;35.42;20.02;;;-1.70;99.90;;;;;;4884461;29;20143;-86
2021/12/22 06:14:45;;;;;;;32.55;19.38;;;-1.70;99.90;;;;;;4900221;29;20392;-86
2021/12/22 06:17:10;;;;;;;38.97;20.05;;;-1.70;99.90;;;;;;4901708;29;20044;-86
2021/12/22 06:19:36;;;;;;;41.92;21.10;;;-1.70;99.90;;;;;;4903535;29;20052;-86
2021/12/22 06:22:02;;;;;;;44.25;22.13;;;-1.80;99.90;;;;;;4920205;29;20048;-86
2021/12/22 06:24:29;;;;;;;40.70;19.90;;;-1.70;99.90;;;;;;4903522;29;20044;-86
2021/12/22 06:26:56;;;;;;;37.33;20.73;;;-1.70;99.90;;;;;;4902789;29;20056;-86
2021/12/22 06:29:22;;;;;;;38.65;19.88;;;-1.70;99.90;;;;;;4920275;29;20052;-85
2021/12/22 06:31:48;;;;;;;38.47;19.60;;;-1.70;99.90;;;;;;4903300;29;20044;-85
2021/12/22 06:34:13;;;;;;;38.58;19.15;;;-1.80;99.90;;;;;;4902887;29;20456;-86
2021/12/22 06:36:39;;;;;;;36.55;19.00;;;-1.80;99.90;;;;;;4903225;29;20111;-85
2021/12/22 06:39:05;;;;;;;34.70;18.60;;;-1.80;99.90;;;;;;4903271;29;20044;-85
2021/12/22 06:41:31;;;;;;;36.47;20.05;;;-1.80;99.90;;;;;;4903354;29;20056;-85
2021/12/22 06:43:57;;;;;;;43.47;21.45;;;-1.80;99.90;;;;;;4919899;29;20395;-85
2021/12/22 06:46:23;;;;;;;35.20;19.17;;;-1.80;99.90;;;;;;4902880;29;20052;-85
2021/12/22 06:48:48;;;;;;;37.40;20.23;;;-1.80;99.90;;;;;;4902700;29;20048;-85
2021/12/22 06:51:14;;;;;;;38.47;20.67;;;-1.80;99.90;;;;;;4902773;29;20514;-86
2021/12/22 06:53:40;;;;;;;36.70;18.65;;;-1.80;99.90;;;;;;4903024;29;20079;-85
2021/12/22 06:56:06;;;;;;;38.65;19.27;;;-1.90;99.90;;;;;;4902889;29;20044;-85
2021/12/22 06:58:31;;;;;;;36.40;18.67;;;-1.90;99.90;;;;;;4903152;29;20048;-85
2021/12/22 07:00:58;;;;;;;41.85;18.48;;;-1.90;99.90;;;;;;4919930;29;20551;-85
2021/12/22 07:03:24;;;;;;;36.00;18.85;;;-1.90;99.90;;;;;;4919455;29;20083;-85
2021/12/22 07:05:50;;;;;;;33.53;19.63;;;-2.00;99.90;;;;;;4902541;29;20079;-85
2021/12/22 07:08:16;;;;;;;31.17;19.13;;;-1.90;99.90;;;;;;4902293;29;20060;-85
2021/12/22 07:10:41;;;;;;;38.35;19.27;;;-2.00;99.90;;;;;;4902462;29;20048;-85
2021/12/22 07:13:07;;;;;;;35.05;18.55;;;-2.00;99.90;;;;;;4919403;29;20067;-85
2021/12/22 07:15:33;;;;;;;33.35;18.58;;;-2.00;99.90;;;;;;4902227;29;20051;-85
2021/12/22 07:17:59;;;;;;;34.63;18.40;;;-2.00;99.90;;;;;;4902869;29;20036;-85
2021/12/22 07:20:24;;;;;;;43.72;20.42;;;-2.10;99.90;;;;;;4902226;29;20492;-85
2021/12/22 07:22:52;;;;;;;34.38;17.63;;;-2.10;99.90;;;;;;4902545;29;20146;-85
2021/12/22 07:25:23;;;;;;;33.72;18.75;;;-2.10;99.90;;;;;;4902280;29;20458;-85
2021/12/22 07:27:48;;;;;;;35.72;18.38;;;-2.10;99.90;;;;;;4918424;29;20138;-85
2021/12/22 07:30:14;;;;;;;40.80;19.48;;;-2.10;99.90;;;;;;4900538;29;20064;-85
2021/12/22 07:32:40;;;;;;;35.58;18.45;;;-2.10;99.90;;;;;;4901336;29;20086;-84
2021/12/22 07:35:29;;;;;;;37.20;20.08;;;-2.10;99.90;;;;;;4901826;29;20044;-85
2021/12/22 07:38:07;;;;;;;34.63;18.92;;;-2.10;99.90;;;;;;4901763;29;20040;-85
2021/12/22 07:40:34;;;;;;;34.40;19.02;;;-2.10;99.90;;;;;;4901780;29;20051;-86
2021/12/22 07:42:59;;;;;;;40.95;17.75;;;-2.20;99.90;;;;;;4901748;29;20062;-85
2021/12/22 07:45:25;;;;;;;33.42;17.13;;;-2.20;99.90;;;;;;4901606;29;20040;-85
2021/12/22 07:47:50;;;;;;;37.08;18.38;;;-2.10;99.90;;;;;;4901512;29;20054;-85
2021/12/22 07:50:16;;;;;;;39.28;19.85;;;-2.10;99.90;;;;;;4901667;29;20512;-85
2021/12/22 07:52:42;;;;;;;33.10;18.50;;;-2.10;99.90;;;;;;4901364;29;20123;-85
2021/12/22 07:55:08;;;;;;;40.88;19.58;;;-2.10;99.90;;;;;;4918352;29;20074;-85
2021/12/22 07:57:33;;;;;;;35.17;18.23;;;-2.10;99.90;;;;;;4902340;29;20167;-85
2021/12/22 07:59:59;;;;;;;36.03;19.75;;;-2.10;99.90;;;;;;4901610;29;20475;-85
2021/12/22 08:02:25;;;;;;;39.65;20.05;;;-2.10;99.90;;;;;;4900999;29;20128;-85
2021/12/22 08:04:50;;;;;;;32.35;17.98;;;-2.00;99.90;;;;;;4918232;29;20048;-84
2021/12/22 08:07:16;;;;;;;35.00;15.95;;;-2.00;99.90;;;;;;4901045;29;20103;-85
2021/12/22 08:09:42;;;;;;;34.10;17.60;;;-2.00;99.90;;;;;;4901293;29;20135;-84
2021/12/22 08:12:08;;;;;;;36.13;17.95;;;-2.00;99.90;;;;;;4901142;29;20043;-85
2021/12/22 08:14:36;;;;;;;39.67;18.92;;;-1.90;99.90;;;;;;4901240;29;20088;-84
2021/12/22 08:17:02;;;;;;;30.15;16.70;;;-1.90;99.90;;;;;;4900967;29;20051;-85
2021/12/22 08:19:27;;;;;;;36.33;17.92;;;-1.80;99.90;;;;;;4901141;29;20047;-85
2021/12/22 08:21:55;;;;;;;37.40;16.95;;;-1.80;99.90;;;;;;4901767;29;20044;-85
2021/12/22 08:24:21;;;;;;;34.05;16.30;;;-1.80;99.90;;;;;;4900872;29;20052;-85
2021/12/22 08:26:47;;;;;;;35.95;17.38;;;-1.80;99.90;;;;;;4898364;29;20432;-82
2021/12/22 08:29:12;;;;;;;35.90;17.65;;;-1.70;99.90;;;;;;4908338;29;20052;-84
2021/12/22 08:31:38;;;;;;;37.67;18.60;;;-1.70;99.90;;;;;;4881788;29;20048;-83
2021/12/22 08:34:06;;;;;;;37.00;18.05;;;-1.70;99.90;;;;;;4885018;29;20049;-84
2021/12/22 08:39:16;;;;;;;35.58;18.13;;;-1.60;99.90;;;;;;4881207;29;20135;-84
2021/12/22 08:41:47;;;;;;;37.63;16.65;;;-1.60;99.90;;;;;;4881457;29;20143;-84
2021/12/22 08:44:14;;;;;;;36.28;17.35;;;-1.50;99.90;;;;;;4881629;29;20049;-84
2021/12/22 08:46:43;;;;;;;35.17;16.77;;;-1.50;99.90;;;;;;4881186;29;20104;-84
2021/12/22 08:49:09;;;;;;;31.08;16.38;;;-1.50;99.90;;;;;;4881589;29;20419;-84
2021/12/22 08:51:36;;;;;;;37.20;17.75;;;-1.40;99.90;;;;;;4898302;29;20116;-85
2021/12/22 08:54:02;;;;;;;32.35;16.52;;;-1.40;99.90;;;;;;4881233;29;20044;-85
2021/12/22 08:56:29;;;;;;;37.58;18.00;;;-1.40;99.90;;;;;;4881434;29;20467;-84
2021/12/22 08:58:54;;;;;;;27.10;15.45;;;-1.40;99.90;;;;;;4881737;29;20492;-84
2021/12/22 09:01:25;;;;;;;33.08;17.58;;;-1.40;99.90;;;;;;4881321;29;20056;-84
2021/12/22 09:03:51;;;;;;;39.47;17.98;;;-1.30;99.90;;;;;;4881742;29;20044;-84
2021/12/22 09:06:20;;;;;;;39.25;18.10;;;-1.40;99.90;;;;;;4881469;29;20060;-85
2021/12/22 09:08:45;;;;;;;37.05;18.75;;;-1.30;99.90;;;;;;4881046;29;20059;-85
2021/12/22 09:11:12;;;;;;;37.67;17.58;;;-1.30;99.90;;;;;;4881336;29;20048;-84
2021/12/22 09:13:39;;;;;;;34.70;18.00;;;-1.30;99.90;;;;;;4881540;29;20041;-84
2021/12/22 09:16:07;;;;;;;35.22;17.27;;;-1.30;99.90;;;;;;4881596;29;20044;-84
2021/12/22 09:18:33;;;;;;;32.03;16.10;;;-1.30;99.90;;;;;;4897929;29;20515;-85
2021/12/22 09:20:59;;;;;;;35.95;16.10;;;-1.30;99.90;;;;;;4881072;29;20049;-84
2021/12/22 09:23:24;;;;;;;32.25;15.50;;;-1.20;99.90;;;;;;4881317;29;20056;-85
2021/12/22 09:25:50;;;;;;;37.83;16.73;;;-1.20;99.90;;;;;;4881394;29;20044;-85
2021/12/22 09:28:16;;;;;;;28.77;15.80;;;-1.10;99.90;;;;;;4880988;29;20092;-85
2021/12/22 09:30:43;;;;;;;32.17;16.60;;;-1.00;99.90;;;;;;4889307;29;20437;-86
2021/12/22 09:33:13;;;;;;;36.38;16.77;;;-1.00;99.90;;;;;;4880713;29;20112;-85
2021/12/22 09:35:40;;;;;;;34.35;16.67;;;-1.00;99.90;;;;;;4880706;29;20066;-85
2021/12/22 09:38:07;;;;;;;28.35;15.02;;;-0.90;99.90;;;;;;4880568;29;20064;-85
2021/12/22 09:40:33;;;;;;;33.95;17.85;;;-0.90;99.90;;;;;;4880662;29;20053;-85
2021/12/22 09:42:59;;;;;;;31.55;16.15;;;-0.90;99.90;;;;;;4880843;29;20164;-85
2021/12/22 09:45:26;;;;;;;41.22;17.98;;;-0.80;99.90;;;;;;4881310;29;20131;-85
2021/12/22 09:48:18;;;;;;;33.40;17.15;;;-0.80;99.90;;;;;;4881003;29;20048;-85
2021/12/22 09:50:53;;;;;;;39.13;16.92;;;-0.80;99.90;;;;;;4881380;29;20053;-86
2021/12/22 09:53:21;;;;;;;36.25;17.33;;;-0.80;99.90;;;;;;4884417;29;20049;-87
2021/12/22 09:55:49;;;;;;;34.13;15.35;;;-0.80;99.90;;;;;;4884461;29;20079;-86
2021/12/22 09:58:15;;;;;;;39.78;18.23;;;-0.70;99.90;;;;;;4884750;29;20048;-85
2021/12/22 10:00:43;;;;;;;34.45;16.17;;;-0.70;99.90;;;;;;4892054;29;20519;-85
2021/12/22 10:03:10;;;;;;;33.20;16.48;;;-0.70;99.90;;;;;;4884630;29;20053;-86
2021/12/22 10:05:37;;;;;;;32.22;16.10;;;-0.60;99.90;;;;;;4884315;29;20067;-86
2021/12/22 10:08:14;;;;;;;34.85;17.10;;;-0.60;99.90;;;;;;4884376;29;20135;-86
2021/12/22 10:10:59;;;;;;;36.80;18.50;;;-0.60;99.90;;;;;;4895084;29;20059;-86
2021/12/22 10:13:29;;;;;;;41.33;19.63;;;-0.50;99.90;;;;;;4901183;29;20178;-86
2021/12/22 10:15:57;;;;;;;36.00;17.13;;;-0.50;99.90;;;;;;4884113;29;20048;-85
2021/12/22 10:18:27;;;;;;;31.67;16.05;;;-0.50;99.90;;;;;;4884185;29;20055;-86
2021/12/22 10:21:08;;;;;;;35.55;18.02;;;-0.40;99.90;;;;;;4884222;29;20413;-85
2021/12/22 10:23:34;;;;;;;37.05;18.15;;;-0.40;99.90;;;;;;4884130;29;20136;-85
2021/12/22 10:26:06;;;;;;;44.67;18.60;;;-0.30;99.90;;;;;;4884166;29;20560;-86
2021/12/22 10:28:50;;;;;;;34.42;18.50;;;-0.30;99.90;;;;;;4883602;29;20065;-85
2021/12/22 10:31:19;;;;;;;38.63;18.58;;;-0.30;99.90;;;;;;4894439;29;20048;-85
2021/12/22 10:33:46;;;;;;;35.55;17.90;;;-0.30;99.90;;;;;;4883905;29;20048;-86
2021/12/22 10:36:19;;;;;;;33.78;18.42;;;-0.30;99.90;;;;;;4884192;29;20052;-87
2021/12/22 10:39:00;;;;;;;34.17;17.67;;;-0.30;99.90;;;;;;4883967;29;20056;-86
2021/12/22 10:41:29;;;;;;;35.03;18.25;;;-0.40;99.90;;;;;;4889778;29;20063;-85
2021/12/22 10:43:55;;;;;;;36.65;18.52;;;-0.40;99.90;;;;;;4884044;29;20067;-86
2021/12/22 10:46:30;;;;;;;35.10;19.30;;;-0.40;99.90;;;;;;4883695;29;20484;-87
2021/12/22 10:49:18;;;;;;;35.33;18.40;;;-0.40;99.90;;;;;;4883642;29;20053;-86
2021/12/22 10:52:04;;;;;;;37.17;17.75;;;-0.40;99.90;;;;;;4883886;29;20132;-86
2021/12/22 10:54:33;;;;;;;32.97;19.23;;;-0.40;99.90;;;;;;4883156;29;20063;-86
2021/12/22 10:57:00;;;;;;;40.65;19.50;;;-0.30;99.90;;;;;;4883549;29;20093;-86
2021/12/22 10:59:26;;;;;;;37.88;18.27;;;-0.40;99.90;;;;;;4885913;29;20052;-86
2021/12/22 11:02:06;;;;;;;32.72;17.85;;;-0.30;99.90;;;;;;4899145;29;20055;-86
2021/12/22 11:04:33;;;;;;;35.95;19.08;;;-0.30;99.90;;;;;;4899937;29;20498;-85
2021/12/22 11:07:08;;;;;;;36.95;18.90;;;-0.30;99.90;;;;;;4882398;29;20052;-85
2021/12/22 11:09:36;;;;;;;38.15;18.40;;;-0.40;99.90;;;;;;4881960;29;20052;-87
2021/12/22 11:12:06;;;;;;;37.47;19.63;;;-0.40;99.90;;;;;;4883473;29;20064;-87
2021/12/22 11:14:40;;;;;;;34.67;19.33;;;-0.30;99.90;;;;;;4884555;29;20059;-85
2021/12/22 11:17:08;;;;;;;41.33;18.83;;;-0.30;99.90;;;;;;4883505;29;20048;-85
2021/12/22 11:19:50;;;;;;;36.33;18.38;;;-0.30;99.90;;;;;;4883810;29;20067;-89
2021/12/22 11:22:17;;;;;;;35.58;18.25;;;-0.20;99.90;;;;;;4883727;29;20051;-85
2021/12/22 11:24:45;;;;;;;32.22;17.85;;;-0.10;99.90;;;;;;4883317;29;20091;-84
2021/12/22 11:27:14;;;;;;;38.05;18.92;;;-0.10;99.90;;;;;;4882103;29;20051;-86
2021/12/22 11:29:42;;;;;;;34.70;16.60;;;0.00;99.90;;;;;;4882828;29;20067;-87
2021/12/22 11:32:09;;;;;;;34.13;20.30;;;0.10;99.90;;;;;;4882970;29;20053;-88
2021/12/22 11:34:37;;;;;;;36.40;17.33;;;0.10;99.90;;;;;;4882788;29;20048;-84
2021/12/22 11:37:09;;;;;;;36.80;17.05;;;0.10;99.90;;;;;;4883226;29;20045;-89
2021/12/22 11:39:35;;;;;;;32.40;17.13;;;0.10;99.90;;;;;;4882647;29;20036;-87
2021/12/22 11:42:04;;;;;;;32.70;17.17;;;0.10;99.90;;;;;;4883395;29;20311;-88
2021/12/22 11:44:32;;;;;;;37.33;19.35;;;0.00;99.90;;;;;;4882926;29;20112;-88
2021/12/22 11:47:01;;;;;;;40.80;20.20;;;0.00;99.90;;;;;;4882734;29;20112;-83
2021/12/22 11:49:29;;;;;;;35.67;16.88;;;0.00;99.90;;;;;;4882518;29;20410;-84
2021/12/22 11:51:57;;;;;;;37.05;18.33;;;0.00;99.90;;;;;;4882393;29;20390;-85
2021/12/22 11:54:27;;;;;;;34.45;18.67;;;0.10;99.90;;;;;;4882812;29;20092;-84
2021/12/22 11:56:57;;;;;;;35.28;17.65;;;0.00;99.90;;;;;;4882717;29;20045;-85
2021/12/22 11:59:31;;;;;;;37.10;21.55;;;0.00;99.90;;;;;;4899310;29;20059;-84
2021/12/22 12:02:15;;;;;;;27.63;13.55;;;0.00;99.90;;;;;;4882734;29;20116;-84
2021/12/22 12:04:41;;;;;;;33.22;17.85;;;0.10;99.90;;;;;;4882078;29;20082;-85
2021/12/22 12:07:07;;;;;;;35.28;17.48;;;0.10;99.90;;;;;;4881974;29;20072;-88
2021/12/22 12:09:33;;;;;;;36.38;20.05;;;0.10;99.90;;;;;;4882538;29;20057;-85
2021/12/22 12:11:59;;;;;;;34.58;17.38;;;0.10;99.90;;;;;;4882118;29;20489;-86
2021/12/22 12:14:58;;;;;;;34.65;18.85;;;0.10;99.90;;;;;;4881671;29;20060;-88
2021/12/22 12:23:32;;;;;;;31.77;17.60;;;0.40;99.90;;;;;;4844352;29;20053;-86
2021/12/22 12:26:02;;;;;;;34.42;17.45;;;0.40;99.90;;;;;;4874732;29;20064;-87
2021/12/22 12:28:29;;;;;;;35.30;17.30;;;0.40;99.90;;;;;;4898437;29;20071;-86
2021/12/22 12:30:59;;;;;;;37.97;19.38;;;0.40;99.90;;;;;;4881978;29;20091;-87
2021/12/22 12:33:29;;;;;;;36.10;18.25;;;0.40;99.90;;;;;;4881875;29;20099;-86
2021/12/22 12:36:04;;;;;;;33.53;17.40;;;0.40;99.90;;;;;;4881609;29;20056;-86
2021/12/22 12:38:42;;;;;;;33.40;17.42;;;0.40;99.90;;;;;;4882093;29;20060;-87
2021/12/22 12:41:22;;;;;;;33.75;19.17;;;0.40;99.90;;;;;;4881906;29;20446;-86
2021/12/22 12:43:53;;;;;;;31.83;15.82;;;0.40;99.90;;;;;;4898782;29;20144;-86
2021/12/22 12:46:35;;;;;;;31.75;16.77;;;0.40;99.90;;;;;;4881700;29;20055;-88
2021/12/22 12:49:07;;;;;;;38.23;18.90;;;0.40;99.90;;;;;;4881274;29;20448;-90
2021/12/22 12:51:38;;;;;;;32.05;16.58;;;0.40;99.90;;;;;;4881849;29;20412;-89
2021/12/22 12:54:22;;;;;;;27.85;17.65;;;0.40;99.90;;;;;;4881778;29;20400;-91
2021/12/22 12:57:14;;;;;;;31.48;16.30;;;0.40;99.90;;;;;;4881809;29;20056;-89
2021/12/22 12:59:40;;;;;;;33.47;18.92;;;0.40;99.90;;;;;;4870921;29;20056;-89
2021/12/22 13:02:19;;;;;;;32.55;17.45;;;0.30;99.90;;;;;;4881462;29;20084;-90
2021/12/22 13:04:45;;;;;;;35.60;19.67;;;0.30;99.90;;;;;;4881552;29;20053;-90